Time;durP1;ratioP1;P1;durP2;ratioP2;P2;SDS_P1;SDS_P2;PMS_P1;PMS_P2;Temp;Humidity;BMP_temperature;BMP_pressure;BME280_temperature;BME280_humidity;BME280_pressure;Samples;Min_cycle;Max_cycle;Signal;HPM_P1;HPM_P2
2023/01/06 00:00:06;;;;;;;3.63;2.03;;;;;;;6.90;100.00;96509.59;1023857;28;20772;-70
2023/01/06 00:00:37;;;;;;;3.22;2.08;;;;;;;6.93;100.00;96516.97;1025783;28;20042;-71
2023/01/06 00:01:18;;;;;;;2.30;2.00;;;;;;;7.00;100.00;96509.06;1030512;28;20026;-69
2023/01/06 00:01:48;;;;;;;2.50;2.20;;;;;;;7.07;100.00;96504.56;1026869;28;20090;-70
2023/01/06 00:02:19;;;;;;;2.10;1.90;;;;;;;7.07;100.00;96509.78;1028120;28;20266;-70
2023/01/06 00:02:49;;;;;;;2.00;1.70;;;;;;;7.06;100.00;96509.00;1027197;28;20030;-68
2023/01/06 00:03:20;;;;;;;3.25;2.03;;;;;;;7.15;100.00;96509.50;1026716;28;20022;-69
2023/01/06 00:03:51;;;;;;;1.90;1.60;;;;;;;7.15;100.00;96506.88;1026634;28;20030;-69
2023/01/06 00:04:22;;;;;;;3.05;1.92;;;;;;;7.13;100.00;96516.72;1027116;28;20543;-68
2023/01/06 00:04:52;;;;;;;2.20;1.73;;;;;;;7.13;100.00;96503.69;1030332;28;20273;-69
2023/01/06 00:05:23;;;;;;;2.97;1.75;;;;;;;7.15;100.00;96514.72;1030430;28;20654;-70
2023/01/06 00:06:00;;;;;;;2.55;1.85;;;;;;;7.12;100.00;96507.31;1022110;28;20027;-72
2023/01/06 00:06:30;;;;;;;3.40;2.13;;;;;;;7.17;100.00;96510.03;1022401;29;20023;-68
2023/01/06 00:07:01;;;;;;;2.30;2.00;;;;;;;7.17;100.00;96504.81;1018889;29;20278;-71
2023/01/06 00:07:31;;;;;;;2.42;1.92;;;;;;;7.21;100.00;96511.22;1021571;28;20031;-72
2023/01/06 00:08:02;;;;;;;2.08;1.73;;;;;;;7.21;100.00;96516.44;1022608;28;20027;-68
2023/01/06 00:08:35;;;;;;;1.40;1.30;;;;;;;7.24;100.00;96510.78;1030823;28;20046;-69
2023/01/06 00:09:05;;;;;;;1.85;1.75;;;;;;;7.26;100.00;96508.72;1032448;28;20030;-72
2023/01/06 00:09:37;;;;;;;1.52;1.33;;;;;;;7.32;100.00;96505.22;1031979;28;20647;-68
2023/01/06 00:10:07;;;;;;;2.17;1.80;;;;;;;7.31;100.00;96498.44;1034626;28;20037;-71
2023/01/06 00:10:41;;;;;;;3.45;1.85;;;;;;;7.36;100.00;96508.19;1030365;28;20277;-69
2023/01/06 00:11:12;;;;;;;1.60;1.50;;;;;;;7.31;100.00;96500.25;1030383;28;20037;-71
2023/01/06 00:11:43;;;;;;;2.08;1.70;;;;;;;7.37;100.00;96506.38;1023261;28;21044;-69
2023/01/06 00:12:13;;;;;;;2.15;1.75;;;;;;;7.36;100.00;96499.56;1018800;29;20357;-70
2023/01/06 00:12:44;;;;;;;3.35;1.90;;;;;;;7.37;100.00;96495.94;1017893;29;20020;-70
2023/01/06 00:13:15;;;;;;;1.77;1.38;;;;;;;7.40;100.00;96493.66;1026596;28;20109;-67
2023/01/06 00:13:45;;;;;;;1.90;1.75;;;;;;;7.48;100.00;96500.41;1022659;29;20283;-69
2023/01/06 00:14:16;;;;;;;2.25;1.50;;;;;;;7.43;100.00;96495.84;1024244;28;20023;-70
2023/01/06 00:14:46;;;;;;;2.60;1.60;;;;;;;7.38;100.00;96495.72;1018487;29;20074;-69
2023/01/06 00:15:17;;;;;;;1.83;1.60;;;;;;;7.38;100.00;96489.69;1022902;28;20039;-69
2023/01/06 00:15:47;;;;;;;2.38;1.92;;;;;;;7.42;100.00;96496.06;1029095;28;20112;-71
2023/01/06 00:16:18;;;;;;;1.83;1.70;;;;;;;7.40;100.00;96490.25;1018580;28;20074;-71
2023/01/06 00:16:49;;;;;;;2.03;1.63;;;;;;;7.37;100.00;96488.09;1018438;29;20039;-69
2023/01/06 00:17:20;;;;;;;3.75;1.67;;;;;;;7.43;100.00;96503.66;1022309;29;20617;-70
2023/01/06 00:17:50;;;;;;;2.97;1.77;;;;;;;7.43;100.00;96502.88;1020333;28;20027;-67
2023/01/06 00:18:20;;;;;;;1.65;1.55;;;;;;;7.45;100.00;96495.63;1022536;28;20042;-69
2023/01/06 00:18:55;;;;;;;2.75;1.80;;;;;;;7.45;100.00;96504.25;1026327;28;20525;-68
2023/01/06 00:19:25;;;;;;;1.73;1.60;;;;;;;7.45;100.00;96504.25;1025211;28;20045;-68
2023/01/06 00:19:55;;;;;;;1.60;1.35;;;;;;;7.43;100.00;96498.44;1031106;28;20277;-71
2023/01/06 00:20:26;;;;;;;1.60;1.50;;;;;;;7.42;100.00;96499.47;1030691;28;20031;-68
2023/01/06 00:20:59;;;;;;;1.48;1.38;;;;;;;7.36;100.00;96494.34;1034291;28;20625;-68
2023/01/06 00:21:30;;;;;;;2.05;1.83;;;;;;;7.43;100.00;96493.22;1026977;28;20023;-69
2023/01/06 00:22:00;;;;;;;7.50;2.70;;;;;;;7.48;100.00;96495.19;1028760;28;20277;-67
2023/01/06 00:22:31;;;;;;;2.17;1.80;;;;;;;7.49;100.00;96488.94;1030092;28;20038;-71
2023/01/06 00:23:02;;;;;;;3.25;1.40;;;;;;;7.48;100.00;96498.59;1022048;29;20027;-69
2023/01/06 00:23:32;;;;;;;3.33;1.67;;;;;;;7.49;100.00;96491.53;1022715;28;20030;-69
2023/01/06 00:24:03;;;;;;;2.47;1.77;;;;;;;7.46;100.00;96492.00;1018660;29;20282;-69
2023/01/06 00:24:33;;;;;;;1.83;1.67;;;;;;;7.46;100.00;96494.59;1022557;28;20050;-71
2023/01/06 00:25:04;;;;;;;2.38;1.48;;;;;;;7.44;100.00;96488.78;1026096;28;20034;-68
2023/01/06 00:25:34;;;;;;;2.30;1.67;;;;;;;7.41;100.00;96484.00;1026020;28;20035;-69
2023/01/06 00:26:06;;;;;;;1.85;1.60;;;;;;;7.33;100.00;96478.09;1027340;28;20030;-70
2023/01/06 00:26:37;;;;;;;2.95;1.65;;;;;;;7.37;100.00;96475.03;1030407;28;20176;-67
2023/01/06 00:27:07;;;;;;;2.33;1.70;;;;;;;7.38;100.00;96489.69;1030047;28;20273;-69
2023/01/06 00:27:38;;;;;;;3.30;2.00;;;;;;;7.37;100.00;96485.47;1034420;28;20471;-69
2023/01/06 00:28:08;;;;;;;1.98;1.60;;;;;;;7.35;100.00;96480.50;1030151;28;20101;-67
2023/01/06 00:28:39;;;;;;;1.73;1.50;;;;;;;7.33;100.00;96478.09;1028867;28;20085;-69
2023/01/06 00:29:09;;;;;;;1.83;1.70;;;;;;;7.34;100.00;96478.88;1022339;28;20027;-69
2023/01/06 00:29:40;;;;;;;2.42;1.70;;;;;;;7.36;100.00;96478.69;1022104;29;20473;-71
2023/01/06 00:30:11;;;;;;;1.48;1.35;;;;;;;7.38;100.00;96479.22;1018505;29;20502;-69
2023/01/06 00:30:41;;;;;;;6.57;1.77;;;;;;;7.36;100.00;96481.28;1018656;28;20039;-68
2023/01/06 00:31:14;;;;;;;1.85;1.40;;;;;;;7.31;100.00;96485.38;1027586;28;20555;-69
2023/01/06 00:31:45;;;;;;;2.17;1.60;;;;;;;7.25;100.00;96486.25;1031824;28;20748;-69
2023/01/06 00:32:16;;;;;;;3.15;1.70;;;;;;;7.24;100.00;96484.69;1030781;28;20281;-69
2023/01/06 00:32:46;;;;;;;2.72;1.58;;;;;;;7.24;100.00;96486.47;1026575;28;20910;-70
2023/01/06 00:33:17;;;;;;;2.10;1.80;;;;;;;7.21;100.00;96479.91;1030669;28;20045;-68
2023/01/06 00:33:47;;;;;;;2.03;1.55;;;;;;;7.19;100.00;96481.94;1026308;28;20421;-69
2023/01/06 00:34:18;;;;;;;1.55;1.45;;;;;;;7.13;100.00;96472.38;1026557;28;20046;-68
2023/01/06 00:34:48;;;;;;;2.35;1.75;;;;;;;7.19;100.00;96484.53;1026537;28;20039;-71
2023/01/06 00:35:19;;;;;;;2.60;1.58;;;;;;;7.09;100.00;96466.78;1030323;28;20022;-69
2023/01/06 00:35:49;;;;;;;2.55;1.75;;;;;;;7.10;100.00;96470.19;1029951;28;20714;-68
2023/01/06 00:36:20;;;;;;;1.98;1.65;;;;;;;7.14;100.00;96476.56;1022373;28;20031;-68
2023/01/06 00:36:51;;;;;;;2.53;1.80;;;;;;;7.09;100.00;96471.22;1022517;28;20031;-72
2023/01/06 00:37:21;;;;;;;1.88;1.63;;;;;;;7.09;100.00;96469.41;1022171;28;20019;-69
2023/01/06 00:37:51;;;;;;;3.50;1.88;;;;;;;7.11;100.00;96473.59;1022327;28;20867;-70
2023/01/06 00:38:22;;;;;;;2.25;1.55;;;;;;;7.10;100.00;96470.19;1022339;28;20038;-70
2023/01/06 00:38:52;;;;;;;2.15;1.70;;;;;;;7.09;100.00;96476.44;1026391;28;20035;-70
2023/01/06 00:39:23;;;;;;;2.35;1.80;;;;;;;7.09;100.00;96473.84;1026261;28;20133;-71
2023/01/06 00:39:53;;;;;;;1.75;1.42;;;;;;;7.08;100.00;96475.66;1030535;28;20538;-69
2023/01/06 00:40:24;;;;;;;1.67;1.58;;;;;;;7.02;100.00;96466.09;1031032;28;20451;-69
2023/01/06 00:40:57;;;;;;;2.80;1.60;;;;;;;7.07;100.00;96468.03;1030881;28;20034;-71
2023/01/06 00:42:16;;;;;;;1.90;1.65;;;;;;;7.08;100.00;96474.84;1029138;28;20868;-69
2023/01/06 00:42:47;;;;;;;2.88;2.08;;;;;;;7.04;100.00;96471.91;1030299;28;20285;-68
2023/01/06 00:43:17;;;;;;;2.33;1.80;;;;;;;7.06;100.00;96472.47;1026218;28;20763;-70
2023/01/06 00:43:48;;;;;;;2.20;2.00;;;;;;;7.07;100.00;96470.63;1029225;28;20073;-69
2023/01/06 00:44:18;;;;;;;3.20;1.90;;;;;;;7.06;100.00;96475.06;1034420;28;20037;-68
2023/01/06 00:44:49;;;;;;;3.70;2.10;;;;;;;7.07;100.00;96473.25;1030301;28;20420;-71
2023/01/06 00:45:19;;;;;;;2.08;1.60;;;;;;;7.05;100.00;96464.88;1036977;28;20025;-70
2023/01/06 00:45:50;;;;;;;2.25;1.63;;;;;;;7.12;100.00;96476.00;1029455;28;20026;-68
2023/01/06 00:46:21;;;;;;;1.60;1.50;;;;;;;7.09;100.00;96473.84;1030401;28;20598;-67
2023/01/06 00:46:51;;;;;;;2.90;1.42;;;;;;;7.10;100.00;96478.03;1022243;29;20058;-71
2023/01/06 00:47:22;;;;;;;2.33;1.88;;;;;;;7.05;100.00;96476.09;1022427;28;20701;-67
2023/01/06 00:47:52;;;;;;;2.47;1.77;;;;;;;7.05;100.00;96481.31;1022356;29;20038;-67
2023/01/06 00:48:23;;;;;;;2.00;1.65;;;;;;;7.12;100.00;96476.00;1021113;28;20063;-70
2023/01/06 00:48:57;;;;;;;3.70;1.98;;;;;;;7.06;100.00;96477.69;1026154;28;20022;-70
2023/01/06 00:49:27;;;;;;;2.00;1.80;;;;;;;7.05;100.00;96475.31;1021398;29;20022;-68
2023/01/06 00:49:58;;;;;;;1.83;1.67;;;;;;;7.03;100.00;96469.50;1022199;29;21046;-70
2023/01/06 00:50:28;;;;;;;2.40;1.92;;;;;;;7.01;100.00;96479.38;1025276;28;20151;-68
2023/01/06 00:50:59;;;;;;;2.28;2.08;;;;;;;7.00;100.00;96472.53;1026594;28;20034;-71
2023/01/06 00:51:30;;;;;;;2.30;2.00;;;;;;;6.98;100.00;96477.22;1030037;28;20044;-67
2023/01/06 00:52:01;;;;;;;2.72;2.17;;;;;;;6.95;100.00;96465.41;1030889;28;20273;-70
2023/01/06 00:52:33;;;;;;;3.47;1.95;;;;;;;6.95;100.00;96473.22;1034297;28;20021;-69
2023/01/06 00:53:03;;;;;;;3.58;2.20;;;;;;;6.94;100.00;96470.81;1030664;28;20034;-70
2023/01/06 00:53:34;;;;;;;2.20;1.98;;;;;;;6.92;100.00;96473.66;1030301;28;20600;-70
2023/01/06 00:54:08;;;;;;;3.58;2.10;;;;;;;6.84;100.00;96459.13;1026159;28;20019;-69
2023/01/06 00:54:38;;;;;;;2.03;1.83;;;;;;;6.88;100.00;96469.13;1022998;28;20500;-70
2023/01/06 00:55:09;;;;;;;3.05;2.40;;;;;;;6.85;100.00;96470.34;1022312;29;20274;-68
2023/01/06 00:55:39;;;;;;;2.42;2.20;;;;;;;6.84;100.00;96472.16;1024126;28;20504;-71
2023/01/06 00:56:10;;;;;;;2.90;2.03;;;;;;;6.82;100.00;96471.56;1026658;28;20037;-70
2023/01/06 00:56:41;;;;;;;5.03;2.30;;;;;;;6.84;100.00;96473.94;1026349;28;20034;-68
2023/01/06 00:57:12;;;;;;;5.43;2.42;;;;;;;6.82;100.00;96465.56;1024364;28;20078;-68
2023/01/06 00:57:42;;;;;;;5.30;2.55;;;;;;;6.80;100.00;96465.78;1034583;28;20276;-68
2023/01/06 00:58:13;;;;;;;3.08;2.55;;;;;;;6.78;100.00;96465.22;1034587;28;20472;-71
2023/01/06 00:58:43;;;;;;;3.90;2.58;;;;;;;6.79;100.00;96471.22;1034497;28;20099;-70
2023/01/06 00:59:15;;;;;;;4.35;2.50;;;;;;;6.73;100.00;96467.66;1034360;28;20046;-69
2023/01/06 00:59:46;;;;;;;3.55;2.25;;;;;;;6.73;100.00;96469.47;1029816;28;20034;-71
2023/01/06 01:00:16;;;;;;;2.67;2.22;;;;;;;6.70;100.00;96468.09;1030640;28;20265;-67
2023/01/06 01:00:47;;;;;;;3.72;2.78;;;;;;;6.69;100.00;96469.13;1032985;28;20044;-68
2023/01/06 01:01:17;;;;;;;2.85;2.50;;;;;;;6.62;100.00;96465.81;1030173;28;20034;-71
2023/01/06 01:01:49;;;;;;;2.60;2.22;;;;;;;6.59;100.00;96464.44;1026414;28;20030;-70
2023/01/06 01:02:20;;;;;;;2.63;2.30;;;;;;;6.59;100.00;96464.44;1018197;29;20020;-70
2023/01/06 01:02:50;;;;;;;3.45;2.72;;;;;;;6.58;100.00;96462.06;1022786;28;20753;-69
2023/01/06 01:03:21;;;;;;;5.78;2.83;;;;;;;6.55;100.00;96465.88;1022473;29;20282;-68
2023/01/06 01:03:51;;;;;;;4.07;2.90;;;;;;;6.54;100.00;96463.50;1015092;28;20039;-70
2023/01/06 01:04:22;;;;;;;3.40;2.58;;;;;;;6.49;100.00;96461.53;1022331;28;20405;-70
2023/01/06 01:04:52;;;;;;;4.00;2.63;;;;;;;6.45;100.00;96460.38;1018462;29;20055;-67
2023/01/06 01:05:23;;;;;;;3.53;2.85;;;;;;;6.40;100.00;96457.63;1018416;29;20765;-68
2023/01/06 01:06:04;;;;;;;4.03;2.85;;;;;;;6.41;100.00;96466.28;1017390;29;20032;-69
2023/01/06 01:06:35;;;;;;;3.92;2.88;;;;;;;6.40;100.00;96464.66;1020238;28;20027;-68
2023/01/06 01:07:05;;;;;;;5.18;3.03;;;;;;;6.38;100.00;96463.06;1028028;28;20844;-69
2023/01/06 01:07:36;;;;;;;3.50;2.70;;;;;;;6.36;100.00;96464.28;1031659;28;20046;-69
2023/01/06 01:08:06;;;;;;;3.75;2.72;;;;;;;6.36;100.00;96457.28;1030471;28;20027;-69
2023/01/06 01:08:37;;;;;;;3.60;2.92;;;;;;;6.38;100.00;96468.28;1030176;28;20574;-68
2023/01/06 01:09:09;;;;;;;4.45;3.25;;;;;;;6.36;100.00;96464.28;1026343;28;20045;-71
2023/01/06 01:09:39;;;;;;;5.05;2.97;;;;;;;6.32;100.00;96460.53;1022589;28;20031;-72
2023/01/06 01:10:10;;;;;;;5.03;3.33;;;;;;;6.29;100.00;96466.19;1029594;28;20771;-69
2023/01/06 01:10:41;;;;;;;3.72;3.25;;;;;;;6.24;100.00;96458.22;1026082;28;20042;-69
2023/01/06 01:12:08;;;;;;;3.63;3.10;;;;;;;6.20;100.00;96460.44;1030413;28;20911;-69
2023/01/06 01:12:08;;;;;;;;;;;;;;;6.21;100.00;96464.66;1033567;28;20045;-68
2023/01/06 01:12:39;;;;;;;4.57;3.33;;;;;;;6.17;100.00;96463.50;1030248;28;19910;-68
2023/01/06 01:13:09;;;;;;;5.03;2.85;;;;;;;6.13;100.00;96463.13;1029729;28;20262;-69
2023/01/06 01:13:40;;;;;;;4.35;2.83;;;;;;;6.09;100.00;96455.97;1036217;28;20033;-69
2023/01/06 01:14:10;;;;;;;4.88;2.92;;;;;;;6.03;100.00;96456.81;1033479;28;20033;-68
2023/01/06 01:14:46;;;;;;;3.92;2.95;;;;;;;5.97;100.00;96462.88;1024586;28;20552;-68
2023/01/06 01:15:16;;;;;;;3.83;2.67;;;;;;;5.98;100.00;96465.28;1022568;28;20263;-69
2023/01/06 01:15:48;;;;;;;4.82;3.20;;;;;;;5.96;100.00;96466.50;1021738;28;20283;-67
2023/01/06 01:16:19;;;;;;;5.07;2.90;;;;;;;5.93;100.00;96457.31;1022798;28;20080;-68
2023/01/06 01:16:49;;;;;;;4.30;3.22;;;;;;;5.92;100.00;96460.91;1026294;28;20329;-69
2023/01/06 01:17:28;;;;;;;3.97;3.20;;;;;;;5.89;100.00;96462.13;1028583;28;20430;-70
2023/01/06 01:17:58;;;;;;;5.05;3.25;;;;;;;5.86;100.00;96459.16;1028818;28;20064;-69
2023/01/06 01:18:29;;;;;;;4.18;3.05;;;;;;;5.83;100.00;96462.97;1029255;28;21239;-69
2023/01/06 01:18:59;;;;;;;4.68;3.47;;;;;;;5.79;100.00;96467.03;1028497;28;20038;-68
2023/01/06 01:19:30;;;;;;;5.93;3.28;;;;;;;5.77;100.00;96458.66;1027826;28;20588;-69
2023/01/06 01:20:00;;;;;;;4.80;3.17;;;;;;;5.77;100.00;96453.44;1021593;28;20027;-72
2023/01/06 01:20:31;;;;;;;5.05;3.50;;;;;;;5.87;100.00;96464.16;1026766;28;20026;-72
2023/01/06 01:21:01;;;;;;;4.05;2.92;;;;;;;5.83;100.00;96462.97;1032295;28;20033;-70
2023/01/06 01:21:32;;;;;;;4.80;3.80;;;;;;;5.77;100.00;96452.63;1030050;28;20137;-70
2023/01/06 01:22:03;;;;;;;4.85;3.28;;;;;;;5.76;100.00;96459.63;1030032;28;20026;-70
2023/01/06 01:22:33;;;;;;;4.10;3.47;;;;;;;5.74;100.00;96455.69;1028981;28;20110;-68
2023/01/06 01:23:04;;;;;;;5.00;3.95;;;;;;;5.75;100.00;96465.88;1021843;29;20042;-70
2023/01/06 01:23:34;;;;;;;4.88;3.60;;;;;;;5.75;100.00;96455.44;1022254;28;20027;-69
2023/01/06 01:24:05;;;;;;;4.75;3.33;;;;;;;5.71;100.00;96458.72;1035946;28;20511;-69
2023/01/06 01:24:35;;;;;;;4.93;3.70;;;;;;;5.74;100.00;96461.69;1031170;28;20034;-68
2023/01/06 01:25:06;;;;;;;5.63;3.70;;;;;;;5.79;100.00;96463.63;1038175;28;20056;-72
2023/01/06 01:25:39;;;;;;;4.85;3.90;;;;;;;5.78;100.00;96465.44;1033730;28;20587;-69
2023/01/06 01:26:09;;;;;;;5.55;3.92;;;;;;;5.77;100.00;96463.84;1032047;28;20029;-72
2023/01/06 01:26:40;;;;;;;4.97;3.63;;;;;;;5.75;100.00;96458.06;1026334;28;20267;-70
2023/01/06 01:27:10;;;;;;;5.03;3.90;;;;;;;5.67;100.00;96447.94;1028181;28;20026;-67
2023/01/06 01:27:41;;;;;;;5.32;3.88;;;;;;;5.70;100.00;96455.31;1032546;28;20088;-68
2023/01/06 01:28:11;;;;;;;5.15;3.78;;;;;;;5.71;100.00;96458.72;1029626;28;20053;-71
2023/01/06 01:28:42;;;;;;;5.63;3.80;;;;;;;5.65;100.00;96455.94;1029078;28;20037;-70
2023/01/06 01:29:13;;;;;;;4.90;3.65;;;;;;;5.69;100.00;96466.72;1027090;28;20411;-68
2023/01/06 01:29:44;;;;;;;5.63;3.90;;;;;;;5.63;100.00;96454.53;1027096;28;20027;-70
2023/01/06 01:30:14;;;;;;;5.00;3.78;;;;;;;5.66;100.00;96461.94;1028958;28;20285;-68
2023/01/06 01:30:45;;;;;;;5.75;3.50;;;;;;;5.64;100.00;96464.75;1033019;28;20264;-69
2023/01/06 01:31:15;;;;;;;6.32;4.28;;;;;;;5.61;100.00;96464.38;1021639;29;20035;-70
2023/01/06 01:31:46;;;;;;;4.68;3.50;;;;;;;5.58;100.00;96465.59;1021827;29;20042;-68
2023/01/06 01:32:16;;;;;;;5.07;3.75;;;;;;;5.53;100.00;96456.84;1023027;28;20141;-68
2023/01/06 01:32:47;;;;;;;5.45;3.75;;;;;;;5.56;100.00;96466.81;1028672;28;20035;-71
2023/01/06 01:33:17;;;;;;;4.75;3.50;;;;;;;5.53;100.00;96464.63;1026433;28;20093;-70
2023/01/06 01:33:48;;;;;;;5.05;3.70;;;;;;;5.48;100.00;96461.88;1029915;28;20034;-69
2023/01/06 01:34:18;;;;;;;5.75;3.60;;;;;;;5.42;100.00;96458.31;1034486;28;20022;-69
2023/01/06 01:34:49;;;;;;;6.57;3.88;;;;;;;5.45;100.00;96468.31;1030110;28;20034;-69
2023/01/06 01:35:19;;;;;;;4.82;3.55;;;;;;;5.40;100.00;96473.38;1026019;28;20631;-70
2023/01/06 01:35:50;;;;;;;6.30;4.00;;;;;;;5.38;100.00;96470.16;1021451;28;20075;-68
2023/01/06 01:36:20;;;;;;;9.32;4.15;;;;;;;5.34;100.00;96469.00;1022465;28;20090;-70
2023/01/06 01:36:51;;;;;;;6.90;4.03;;;;;;;5.33;100.00;96472.59;1027841;28;20034;-70
2023/01/06 01:37:22;;;;;;;5.63;4.20;;;;;;;5.32;100.00;96469.19;1026349;28;20027;-68
2023/01/06 01:37:52;;;;;;;7.80;4.30;;;;;;;5.32;100.00;96471.78;1022188;28;20270;-70
2023/01/06 01:38:25;;;;;;;6.97;4.57;;;;;;;5.29;100.00;96472.22;1026459;28;20023;-70
2023/01/06 01:38:56;;;;;;;7.53;4.18;;;;;;;5.28;100.00;96469.84;1030495;28;20161;-68
2023/01/06 01:39:28;;;;;;;6.50;4.22;;;;;;;5.28;100.00;96465.44;1030748;28;20347;-70
2023/01/06 01:39:58;;;;;;;6.85;4.13;;;;;;;5.33;100.00;96468.22;1030182;28;20040;-68
2023/01/06 01:40:29;;;;;;;7.75;5.10;;;;;;;5.35;100.00;96470.59;1029688;28;20277;-68
2023/01/06 01:40:59;;;;;;;8.23;4.55;;;;;;;5.36;100.00;96470.38;1026079;28;20050;-71
2023/01/06 01:41:30;;;;;;;6.50;4.50;;;;;;;5.39;100.00;96472.53;1022481;28;20031;-68
2023/01/06 01:42:00;;;;;;;6.05;4.25;;;;;;;5.36;100.00;96470.38;1026547;28;20027;-68
2023/01/06 01:42:31;;;;;;;7.15;4.65;;;;;;;5.38;100.00;96473.56;1030406;28;20030;-71
2023/01/06 01:43:01;;;;;;;6.57;4.80;;;;;;;5.41;100.00;96467.16;1030168;28;20030;-69
2023/01/06 01:43:51;;;;;;;8.68;4.65;;;;;;;5.42;100.00;96461.72;1033374;28;20029;-69
2023/01/06 01:44:54;;;;;;;9.65;5.07;;;;;;;5.47;100.00;96468.13;1032749;28;20566;-69
2023/01/06 01:45:28;;;;;;;7.18;4.82;;;;;;;5.48;100.00;96467.09;1034133;28;20260;-69
2023/01/06 01:45:58;;;;;;;8.43;5.32;;;;;;;5.49;100.00;96472.06;1026930;28;20351;-71
2023/01/06 01:46:37;;;;;;;9.68;4.95;;;;;;;5.48;100.00;96459.28;1018317;29;20268;-70
2023/01/06 01:47:09;;;;;;;8.35;5.13;;;;;;;5.48;100.00;96461.88;1026081;28;20026;-69
2023/01/06 01:47:43;;;;;;;7.45;5.55;;;;;;;5.54;100.00;96468.84;1030226;28;20301;-69
2023/01/06 01:48:23;;;;;;;8.00;5.25;;;;;;;5.54;100.00;96461.03;1026254;28;20262;-70
2023/01/06 01:48:55;;;;;;;7.97;4.95;;;;;;;5.55;100.00;96467.84;1028098;28;20266;-68
2023/01/06 01:49:25;;;;;;;8.95;5.18;;;;;;;5.52;100.00;96455.25;1026428;28;20742;-70
2023/01/06 01:50:14;;;;;;;6.32;4.75;;;;;;;5.58;100.00;96460.41;1026214;28;20266;-66
2023/01/06 01:50:47;;;;;;;7.80;5.05;;;;;;;5.51;100.00;96456.25;1022449;29;20125;-70
2023/01/06 01:51:20;;;;;;;8.13;5.43;;;;;;;5.50;100.00;96452.03;1022061;29;20293;-71
2023/01/06 01:51:51;;;;;;;8.60;4.80;;;;;;;5.47;100.00;96458.50;1022179;29;20293;-69
2023/01/06 01:52:21;;;;;;;7.57;4.95;;;;;;;5.44;100.00;96453.72;1025710;28;20268;-72
2023/01/06 01:52:54;;;;;;;7.43;5.30;;;;;;;5.45;100.00;96457.91;1026879;28;20669;-68
2023/01/06 01:53:27;;;;;;;10.55;4.85;;;;;;;5.39;100.00;96451.72;1027018;28;20027;-70
2023/01/06 01:53:58;;;;;;;8.68;4.28;;;;;;;5.32;100.00;96450.19;1022816;28;20274;-70
2023/01/06 01:54:29;;;;;;;5.57;4.45;;;;;;;5.33;100.00;96459.59;1018107;29;20288;-70
2023/01/06 01:55:00;;;;;;;7.05;4.68;;;;;;;5.33;100.00;96459.59;1022223;29;20772;-70
2023/01/06 01:55:30;;;;;;;6.80;4.53;;;;;;;5.36;100.00;96457.34;1019129;29;20764;-68
2023/01/06 01:56:06;;;;;;;6.65;4.85;;;;;;;5.29;100.00;96446.19;1022067;28;20027;-69
2023/01/06 01:56:41;;;;;;;10.48;5.88;;;;;;;5.29;100.00;96454.00;1018832;29;20032;-69
2023/01/06 01:57:15;;;;;;;6.13;4.60;;;;;;;5.27;100.00;96453.44;1023483;28;20380;-68
2023/01/06 01:58:24;;;;;;;7.38;4.68;;;;;;;5.27;100.00;96450.84;1022320;29;20852;-68
2023/01/06 01:59:08;;;;;;;6.22;4.07;;;;;;;5.28;100.00;96444.63;1032994;28;20309;-69
2023/01/06 01:59:38;;;;;;;7.68;4.68;;;;;;;5.27;100.00;96444.84;1033195;28;20275;-71
2023/01/06 02:00:09;;;;;;;7.35;4.78;;;;;;;5.31;100.00;96457.19;1026357;28;20373;-71
2023/01/06 02:00:41;;;;;;;7.90;4.57;;;;;;;5.34;100.00;96453.38;1026122;28;20412;-69
2023/01/06 02:01:11;;;;;;;6.10;4.75;;;;;;;5.29;100.00;96440.19;1022222;28;20034;-72
2023/01/06 02:01:41;;;;;;;9.18;5.30;;;;;;;5.36;100.00;96454.75;1022277;29;20266;-70
2023/01/06 02:02:13;;;;;;;7.78;5.30;;;;;;;5.38;100.00;96452.75;1023151;28;20067;-68
2023/01/06 02:02:44;;;;;;;8.20;5.05;;;;;;;5.42;100.00;96447.91;1018360;29;20024;-70
2023/01/06 02:03:14;;;;;;;8.25;5.03;;;;;;;5.40;100.00;96455.94;1026591;28;20675;-69
2023/01/06 02:03:45;;;;;;;8.30;5.18;;;;;;;5.47;100.00;96453.28;1022208;29;20097;-69
2023/01/06 02:04:16;;;;;;;10.15;4.40;;;;;;;5.43;100.00;96452.91;1022570;28;20027;-71
2023/01/06 02:04:50;;;;;;;6.97;4.88;;;;;;;5.29;100.00;96438.38;1029891;28;20038;-68
2023/01/06 02:05:22;;;;;;;8.80;5.00;;;;;;;5.41;100.00;96451.53;1022927;28;20305;-69
2023/01/06 02:05:54;;;;;;;8.15;5.05;;;;;;;5.40;100.00;96453.34;1024331;28;20647;-70
2023/01/06 02:06:25;;;;;;;6.78;4.82;;;;;;;5.37;100.00;96445.16;1030190;28;20300;-70
2023/01/06 02:06:55;;;;;;;7.25;4.80;;;;;;;5.37;100.00;96447.75;1026389;28;20274;-73
2023/01/06 02:07:26;;;;;;;7.88;4.80;;;;;;;5.41;100.00;96447.13;1030225;28;20026;-69
2023/01/06 02:07:56;;;;;;;7.35;4.75;;;;;;;5.49;100.00;96453.06;1022249;29;20957;-68
2023/01/06 02:08:53;;;;;;;8.35;5.60;;;;;;;5.51;100.00;96451.06;1030378;28;20112;-68
2023/01/06 02:09:31;;;;;;;7.60;4.88;;;;;;;5.48;100.00;96446.28;1026004;28;20027;-70
2023/01/06 02:10:05;;;;;;;7.13;4.97;;;;;;;5.50;100.00;96452.03;1022216;28;20274;-69
2023/01/06 02:10:35;;;;;;;8.90;4.88;;;;;;;5.50;100.00;96452.88;1022117;29;20258;-70
2023/01/06 02:11:06;;;;;;;9.70;5.28;;;;;;;5.47;100.00;96445.47;1025595;28;20270;-68
2023/01/06 02:11:36;;;;;;;7.82;5.15;;;;;;;5.47;100.00;96448.09;1026403;28;20036;-71
2023/01/06 02:12:07;;;;;;;7.57;4.75;;;;;;;5.46;100.00;96445.69;1026147;28;20089;-70
2023/01/06 02:12:38;;;;;;;6.50;4.93;;;;;;;5.39;100.00;96433.50;1032435;28;20029;-71
2023/01/06 02:13:08;;;;;;;6.57;4.50;;;;;;;5.39;100.00;96440.53;1026271;28;20030;-68
2023/01/06 02:13:40;;;;;;;7.78;4.75;;;;;;;5.43;100.00;96444.28;1022202;29;20309;-69
2023/01/06 02:14:13;;;;;;;6.72;4.45;;;;;;;5.40;100.00;96442.13;1019529;28;20490;-69
2023/01/06 02:14:43;;;;;;;7.28;5.05;;;;;;;5.40;100.00;96439.53;1026083;28;20273;-71
2023/01/06 02:15:24;;;;;;;7.35;4.85;;;;;;;5.40;100.00;96442.94;1022255;29;20278;-71
2023/01/06 02:16:12;;;;;;;6.20;4.30;;;;;;;5.39;100.00;96449.13;1026741;28;20513;-68
2023/01/06 02:16:43;;;;;;;6.45;4.18;;;;;;;5.38;100.00;96447.53;1034377;28;20256;-69
2023/01/06 02:17:25;;;;;;;7.43;4.40;;;;;;;5.35;100.00;96447.97;1030055;28;20853;-67
2023/01/06 02:18:05;;;;;;;6.32;4.25;;;;;;;5.32;100.00;96450.19;1034085;28;20050;-71
2023/01/06 02:18:38;;;;;;;6.07;4.35;;;;;;;5.30;100.00;96445.22;1029093;28;20312;-69
2023/01/06 02:19:46;;;;;;;6.35;4.63;;;;;;;5.28;100.00;96443.81;1037029;28;20753;-69
2023/01/06 02:20:49;;;;;;;7.03;4.63;;;;;;;5.27;100.00;96437.81;1037891;28;20253;-70
2023/01/06 02:21:38;;;;;;;7.50;4.72;;;;;;;5.22;100.00;96442.84;1037929;28;20315;-68
2023/01/06 02:22:24;;;;;;;7.07;4.57;;;;;;;5.16;100.00;96433.28;1034278;28;20322;-64
2023/01/06 02:23:13;;;;;;;7.53;4.97;;;;;;;5.23;100.00;96435.84;1033953;28;20612;-68
2023/01/06 02:24:03;;;;;;;8.30;5.28;;;;;;;5.26;100.00;96440.63;1035216;28;20242;-72
2023/01/06 02:24:46;;;;;;;7.18;4.60;;;;;;;5.26;100.00;96430.22;1035004;28;20257;-69
2023/01/06 02:25:37;;;;;;;8.60;5.45;;;;;;;5.39;100.00;96436.13;1031496;28;20289;-68
2023/01/06 02:26:10;;;;;;;6.15;4.57;;;;;;;5.38;100.00;96434.53;1031789;28;20257;-70
2023/01/06 02:27:07;;;;;;;11.27;5.63;;;;;;;5.36;100.00;96431.31;1039734;28;20053;-69
2023/01/06 02:27:53;;;;;;;6.60;4.55;;;;;;;5.36;100.00;96423.53;1029308;28;20259;-68
2023/01/06 02:28:45;;;;;;;8.23;5.10;;;;;;;5.39;100.00;96430.91;1027598;28;20274;-73
2023/01/06 02:29:36;;;;;;;7.10;5.10;;;;;;;5.41;100.00;96428.91;1031486;28;20237;-68
2023/01/06 02:30:25;;;;;;;6.00;4.28;;;;;;;5.41;100.00;96426.31;1041483;28;20275;-71
2023/01/06 02:31:22;;;;;;;6.65;4.57;;;;;;;5.37;100.00;96430.34;1039487;28;20816;-69
2023/01/06 02:32:20;;;;;;;7.88;4.85;;;;;;;5.33;100.00;96423.16;1035649;28;20297;-68
2023/01/06 02:32:56;;;;;;;6.38;4.82;;;;;;;5.29;100.00;96416.78;1032066;28;20297;-70
2023/01/06 02:33:30;;;;;;;7.40;4.90;;;;;;;5.33;100.00;96421.38;1031458;28;20304;-68
2023/01/06 02:34:16;;;;;;;11.40;4.75;;;;;;;5.34;100.00;96420.34;1027412;28;20295;-67
2023/01/06 02:35:11;;;;;;;4.88;4.15;;;;;;;5.42;100.00;96414.88;1030763;28;20245;-71
2023/01/06 02:35:56;;;;;;;6.70;4.72;;;;;;;5.60;100.00;96416.75;1032337;28;20265;-68
2023/01/06 02:36:38;;;;;;;8.13;5.07;;;;;;;5.63;100.00;96420.69;1032681;28;20245;-68
2023/01/06 02:37:35;;;;;;;6.40;4.40;;;;;;;5.66;100.00;96425.47;1035686;28;20244;-68
2023/01/06 02:38:25;;;;;;;7.70;5.20;;;;;;;5.68;100.00;96407.84;1032424;28;20759;-70